createdAt,value
2022-09-15T00:00:21.003Z,72.25
2022-09-15T00:02:48.638Z,71.98
2022-09-15T00:05:16.353Z,71.72
2022-09-15T00:07:44.125Z,71.98
2022-09-15T00:10:13.575Z,71.87
2022-09-15T00:12:41.485Z,72.62
2022-09-15T00:15:10.066Z,72.20
2022-09-15T00:17:37.633Z,71.94
2022-09-15T00:20:07.421Z,71.79
2022-09-15T00:22:35.148Z,72.05
2022-09-15T00:25:02.735Z,72.29
2022-09-15T00:27:33.050Z,72.04
2022-09-15T00:30:01.059Z,72.27
2022-09-15T00:32:30.433Z,72.45
2022-09-15T00:34:58.195Z,72.57
2022-09-15T00:37:26.937Z,73.01
2022-09-15T00:39:54.637Z,72.93
2022-09-15T00:42:23.849Z,72.90
2022-09-15T00:44:58.749Z,73.15
2022-09-15T00:47:29.636Z,73.07
2022-09-15T00:50:09.286Z,73.32
2022-09-15T00:52:40.372Z,73.51
2022-09-15T00:55:13.209Z,73.71
2022-09-15T00:57:45.647Z,73.72
2022-09-15T01:00:18.702Z,73.76
2022-09-15T01:02:48.227Z,73.94
2022-09-15T01:05:18.847Z,74.43
2022-09-15T01:07:49.997Z,74.54
2022-09-15T01:10:23.688Z,75.03
2022-09-15T01:12:51.657Z,74.77
2022-09-15T01:15:23.076Z,74.65
2022-09-15T01:18:05.737Z,74.35
2022-09-15T01:21:05.718Z,73.95
2022-09-15T01:23:59.487Z,73.52
2022-09-15T01:27:24.146Z,73.23
2022-09-15T01:30:03.359Z,72.88
2022-09-15T01:32:58.843Z,72.95
2022-09-15T01:35:34.332Z,72.66
2022-09-15T01:38:07.666Z,72.33
2022-09-15T01:40:41.797Z,72.22
2022-09-15T01:43:11.375Z,72.96
2022-09-15T01:45:45.269Z,72.81
2022-09-15T01:48:13.239Z,72.08
2022-09-15T01:50:45.595Z,72.49
2022-09-15T01:53:17.809Z,72.21
2022-09-15T01:55:49.989Z,72.25
2022-09-15T01:58:17.577Z,71.98
2022-09-15T02:00:50.594Z,71.92
2022-09-15T02:03:25.182Z,71.33
2022-09-15T02:08:38.360Z,71.27
2022-09-15T02:11:15.465Z,70.92
2022-09-15T02:13:48.766Z,70.83
2022-09-15T02:16:21.561Z,70.73
2022-09-15T02:19:03.547Z,70.51
2022-09-15T02:21:37.495Z,70.36
2022-09-15T02:24:12.807Z,69.85
2022-09-15T02:26:43.089Z,69.86
2022-09-15T02:29:14.129Z,69.10
2022-09-15T02:31:45.565Z,69.38
2022-09-15T02:34:17.538Z,69.29
2022-09-15T02:36:46.681Z,69.53
2022-09-15T02:39:19.383Z,69.44
2022-09-15T02:41:47.265Z,69.21
2022-09-15T02:44:15.047Z,69.08
2022-09-15T02:46:44.081Z,69.32
2022-09-15T02:49:11.856Z,69.03
2022-09-15T02:51:39.455Z,69.26
2022-09-15T02:54:08.066Z,69.38
2022-09-15T02:56:35.799Z,69.54
2022-09-15T02:59:03.422Z,69.27
2022-09-15T03:01:34.429Z,69.14
2022-09-15T03:04:04.512Z,69.19
2022-09-15T03:06:35.438Z,69.29
2022-09-15T03:09:05.829Z,69.02
2022-09-15T03:11:34.276Z,69.05
2022-09-15T03:14:04.665Z,69.24
2022-09-15T03:16:34.303Z,69.15
2022-09-15T03:19:04.413Z,68.92
2022-09-15T03:21:32.023Z,68.79
2022-09-15T03:24:00.502Z,68.79
2022-09-15T03:26:28.277Z,69.02
2022-09-15T03:28:55.935Z,68.86
2022-09-15T03:31:23.581Z,68.93
2022-09-15T03:33:54.682Z,68.85
2022-09-15T03:36:23.595Z,68.75
2022-09-15T03:38:51.546Z,68.78
2022-09-15T03:41:19.938Z,68.86
2022-09-15T03:43:47.524Z,68.80
2022-09-15T03:46:15.405Z,68.53
2022-09-15T03:48:43.014Z,68.08
2022-09-15T03:51:11.563Z,68.01
2022-09-15T03:53:41.960Z,67.94
2022-09-15T03:56:12.481Z,67.69
2022-09-15T03:58:40.201Z,67.56
2022-09-15T04:01:08.006Z,67.43
2022-09-15T04:03:40.749Z,67.41
2022-09-15T04:06:12.338Z,67.36
2022-09-15T04:08:41.631Z,67.09
2022-09-15T04:11:11.499Z,67.10
2022-09-15T04:13:40.523Z,67.25
2022-09-15T04:16:11.683Z,67.50
2022-09-15T04:18:39.719Z,67.34
2022-09-15T04:21:09.960Z,67.18
2022-09-15T04:23:37.555Z,67.23
2022-09-15T04:26:08.302Z,67.20
2022-09-15T04:28:39.509Z,67.04
2022-09-15T04:31:09.556Z,67.06
2022-09-15T04:33:38.574Z,67.07
2022-09-15T04:36:08.750Z,67.24
2022-09-15T04:38:36.631Z,66.84
2022-09-15T04:41:06.854Z,66.68
2022-09-15T04:43:35.437Z,66.63
2022-09-15T04:46:03.023Z,66.57
2022-09-15T04:48:31.662Z,66.39
2022-09-15T04:51:02.665Z,66.40
2022-09-15T04:53:30.902Z,66.44
2022-09-15T04:56:08.025Z,65.97
2022-09-15T04:58:39.889Z,65.90
2022-09-15T05:01:13.187Z,65.52
2022-09-15T05:03:41.728Z,65.69
2022-09-15T05:06:15.897Z,65.12
2022-09-15T05:08:43.908Z,65.36
2022-09-15T05:11:13.599Z,65.17
2022-09-15T05:13:41.909Z,65.27
2022-09-15T05:16:12.041Z,65.25
2022-09-15T05:18:40.514Z,64.98
2022-09-15T05:21:09.594Z,64.98
2022-09-15T05:23:38.363Z,65.06
2022-09-15T05:26:08.039Z,64.95
2022-09-15T05:28:38.219Z,64.94
2022-09-15T05:31:09.968Z,65.03
2022-09-15T05:33:38.377Z,65.08
2022-09-15T05:36:07.178Z,64.96
2022-09-15T05:38:35.153Z,64.96
2022-09-15T05:41:04.168Z,65.03
2022-09-15T05:43:32.750Z,65.03
2022-09-15T05:46:02.510Z,64.99
2022-09-15T05:48:30.514Z,65.06
2022-09-15T05:50:58.875Z,65.18
2022-09-15T05:53:27.575Z,65.49
2022-09-15T05:55:57.055Z,65.43
2022-09-15T05:58:25.277Z,65.27
2022-09-15T06:00:54.244Z,65.39
2022-09-15T06:03:28.624Z,64.82
2022-09-15T06:05:59.960Z,65.13
2022-09-15T06:08:31.834Z,64.96
2022-09-15T06:11:04.421Z,65.28
2022-09-15T06:13:32.006Z,65.29
2022-09-15T06:16:04.017Z,65.04
2022-09-15T06:18:33.835Z,65.04
2022-09-15T06:21:05.308Z,65.18
2022-09-15T06:23:33.347Z,65.34
2022-09-15T06:26:09.601Z,65.86
2022-09-15T06:28:37.659Z,65.40
2022-09-15T06:31:12.064Z,65.22
2022-09-15T06:33:44.813Z,65.60
2022-09-15T06:36:13.205Z,65.14
2022-09-15T06:38:41.193Z,65.33
2022-09-15T06:41:09.440Z,65.48
2022-09-15T06:43:37.593Z,65.16
2022-09-15T06:46:06.201Z,65.17
2022-09-15T06:48:33.868Z,65.64
2022-09-15T06:51:04.291Z,65.46
2022-09-15T06:53:32.476Z,65.59
2022-09-15T06:56:03.597Z,66.63
2022-09-15T06:58:36.266Z,67.63
2022-09-15T07:01:05.547Z,69.05
2022-09-15T07:03:33.279Z,70.01
2022-09-15T07:06:03.188Z,70.26
2022-09-15T07:08:30.965Z,71.36
2022-09-15T07:10:58.683Z,71.59
2022-09-15T07:13:26.744Z,71.28
2022-09-15T07:15:55.847Z,71.72
2022-09-15T07:18:24.409Z,71.52
2022-09-15T07:20:59.968Z,71.85
2022-09-15T07:23:29.326Z,71.73
2022-09-15T07:26:06.576Z,71.74
2022-09-15T07:28:35.922Z,71.70
2022-09-15T07:31:04.290Z,71.57
2022-09-15T07:33:31.923Z,71.64
2022-09-15T07:35:59.571Z,71.51
2022-09-15T07:38:27.126Z,71.28
2022-09-15T07:40:56.298Z,71.29
2022-09-15T07:43:26.653Z,70.94
2022-09-15T07:45:57.889Z,70.85
2022-09-15T07:48:26.549Z,70.76
2022-09-15T07:50:54.502Z,70.31
2022-09-15T07:53:22.821Z,69.51
2022-09-15T07:55:53.325Z,69.12
2022-09-15T07:58:22.906Z,68.76
2022-09-15T08:00:51.023Z,68.42
2022-09-15T08:03:19.040Z,67.63
2022-09-15T08:05:46.793Z,67.69
2022-09-15T08:08:14.472Z,67.09
2022-09-15T08:10:42.862Z,67.23
2022-09-15T08:13:10.429Z,66.73
2022-09-15T08:15:39.458Z,66.87
2022-09-15T08:18:07.617Z,66.82
2022-09-15T08:20:35.285Z,66.62
2022-09-15T08:23:03.151Z,66.56
2022-09-15T08:25:31.676Z,66.68
2022-09-15T08:27:59.969Z,66.39
2022-09-15T08:30:28.147Z,66.58
2022-09-15T08:32:57.202Z,66.59
2022-09-15T08:35:24.764Z,66.33
2022-09-15T08:37:54.666Z,66.50
2022-09-15T08:40:33.558Z,66.43
2022-09-15T08:43:05.821Z,66.35
2022-09-15T08:45:43.058Z,65.97
2022-09-15T08:48:16.674Z,65.84
2022-09-15T08:50:47.210Z,64.85
2022-09-15T08:53:18.131Z,64.74
2022-09-15T08:55:50.880Z,64.37
2022-09-15T08:58:20.387Z,64.16
2022-09-15T09:00:51.746Z,64.08
2022-09-15T09:03:54.156Z,63.83
2022-09-15T09:06:31.031Z,63.42
2022-09-15T09:09:09.661Z,63.34
2022-09-15T09:12:17.584Z,63.28
2022-09-15T09:15:04.277Z,62.97
2022-09-15T09:17:52.249Z,62.62
2022-09-15T09:20:33.415Z,62.88
2022-09-15T09:23:03.164Z,62.84
2022-09-15T09:25:49.795Z,62.37
2022-09-15T09:28:32.997Z,63.02
2022-09-15T09:31:08.123Z,63.22
2022-09-15T09:33:47.351Z,62.77
2022-09-15T09:36:15.884Z,62.83
2022-09-15T09:38:46.332Z,62.84
2022-09-15T09:41:17.878Z,63.31
2022-09-15T09:43:48.466Z,63.36
2022-09-15T09:46:18.518Z,63.08
2022-09-15T09:48:49.209Z,63.13
2022-09-15T09:51:39.178Z,63.34
2022-09-15T09:54:12.601Z,62.89
2022-09-15T09:56:41.671Z,62.84
2022-09-15T09:59:33.249Z,62.67
2022-09-15T10:02:15.854Z,62.63
2022-09-15T10:04:45.059Z,62.31
2022-09-15T10:07:14.129Z,61.56
2022-09-15T10:09:50.950Z,61.47
2022-09-15T10:12:24.710Z,61.53
2022-09-15T10:24:32.411Z,60.91
2022-09-15T10:27:18.792Z,60.56
2022-09-15T10:29:48.142Z,60.70
2022-09-15T10:32:25.976Z,59.92
2022-09-15T10:35:01.939Z,59.92
2022-09-15T10:37:36.425Z,59.33
2022-09-15T10:40:22.017Z,57.05
2022-09-15T10:42:54.387Z,56.71
2022-09-15T10:45:33.668Z,56.89
2022-09-15T10:48:25.413Z,57.63
2022-09-15T10:50:59.337Z,57.61
2022-09-15T10:53:52.764Z,57.83
2022-09-15T10:56:29.134Z,57.90
2022-09-15T10:59:10.410Z,58.03
2022-09-15T11:02:02.651Z,58.55
2022-09-15T11:04:44.342Z,58.09
2022-09-15T11:07:20.100Z,58.34
2022-09-15T11:09:55.437Z,58.64
2022-09-15T11:12:34.545Z,57.95
2022-09-15T11:15:29.399Z,58.33
2022-09-15T11:18:13.349Z,58.30
2022-09-15T11:21:05.398Z,58.51
2022-09-15T11:23:38.429Z,58.99
2022-09-15T11:26:09.887Z,58.89
2022-09-15T11:28:42.707Z,59.37
2022-09-15T11:31:17.984Z,59.57
2022-09-15T11:33:53.328Z,60.13
2022-09-15T11:36:24.717Z,59.08
2022-09-15T11:38:57.639Z,58.93
2022-09-15T11:41:32.032Z,58.92
2022-09-15T11:44:19.880Z,59.05
2022-09-15T11:47:04.151Z,58.33
2022-09-15T11:49:39.732Z,58.08
2022-09-15T11:52:18.845Z,58.61
2022-09-15T11:54:51.530Z,58.66
2022-09-15T11:57:26.510Z,58.97
2022-09-15T12:00:03.370Z,58.61
2022-09-15T12:02:39.776Z,58.74
2022-09-15T12:05:15.502Z,58.36
2022-09-15T12:07:54.021Z,58.08
2022-09-15T12:10:25.546Z,58.61
2022-09-15T12:12:55.227Z,58.60
2022-09-15T12:15:27.513Z,59.00
2022-09-15T12:18:06.653Z,59.01
2022-09-15T12:20:53.570Z,59.06
2022-09-15T12:23:26.138Z,59.23
2022-09-15T12:26:09.110Z,59.41
2022-09-15T12:28:42.381Z,59.70
2022-09-15T12:31:24.951Z,59.99
2022-09-15T12:33:57.843Z,60.35
2022-09-15T12:36:42.533Z,61.11
2022-09-15T12:39:38.481Z,61.44
2022-09-15T12:42:20.389Z,61.85
2022-09-15T12:44:53.349Z,62.35
2022-09-15T12:47:36.766Z,62.89
2022-09-15T12:50:21.266Z,62.58
2022-09-15T12:52:53.546Z,63.38
2022-09-15T12:55:24.105Z,63.31
2022-09-15T12:57:55.647Z,63.65
2022-09-15T13:00:35.998Z,63.99
2022-09-15T13:03:06.584Z,63.41
2022-09-15T13:05:55.061Z,63.32
2022-09-15T13:08:47.600Z,62.69
2022-09-15T13:11:18.619Z,63.29
2022-09-15T13:13:50.233Z,62.49
2022-09-15T13:16:22.980Z,62.20
2022-09-15T13:19:05.891Z,62.24
2022-09-15T13:21:36.270Z,62.47
2022-09-15T13:24:07.801Z,62.15
2022-09-15T13:26:37.529Z,60.88
2022-09-15T13:29:07.356Z,60.25
2022-09-15T13:31:45.053Z,60.38
2022-09-15T13:35:08.839Z,59.95
2022-09-15T13:38:22.741Z,59.07
2022-09-15T13:41:24.634Z,59.21
2022-09-15T13:44:43.625Z,59.48
2022-09-15T13:47:38.916Z,59.26
2022-09-15T13:50:15.719Z,58.88
2022-09-15T13:52:55.512Z,59.02
2022-09-15T13:55:27.789Z,59.40
2022-09-15T14:00:55.456Z,59.12
2022-09-15T14:03:28.078Z,59.55
2022-09-15T14:05:57.115Z,59.39
2022-09-15T14:08:27.906Z,59.42
2022-09-15T14:10:59.640Z,59.92
2022-09-15T14:13:31.172Z,59.74
2022-09-15T14:16:03.998Z,59.95
2022-09-15T14:18:41.412Z,60.28
2022-09-15T14:21:17.254Z,61.13
2022-09-15T14:23:47.601Z,62.54
2022-09-15T14:26:16.927Z,63.01
2022-09-15T14:28:51.899Z,64.00
2022-09-15T14:31:28.580Z,63.68
2022-09-15T14:33:56.567Z,64.29
2022-09-15T14:36:28.299Z,63.88
2022-09-15T14:39:08.862Z,63.54
2022-09-15T14:41:37.460Z,63.29
2022-09-15T14:47:12.863Z,64.63
2022-09-15T14:49:40.533Z,65.85
2022-09-15T14:52:23.998Z,66.76
2022-09-15T14:54:56.391Z,67.41
2022-09-15T14:57:30.824Z,70.86
2022-09-15T15:00:04.006Z,69.96
2022-09-15T15:02:46.423Z,71.28
2022-09-15T15:05:18.622Z,70.74
2022-09-15T15:07:47.057Z,70.86
2022-09-15T15:10:20.652Z,72.33
2022-09-15T15:12:51.232Z,73.20
2022-09-15T15:15:20.711Z,73.08
2022-09-15T15:17:51.133Z,74.13
2022-09-15T15:20:22.816Z,74.42
2022-09-15T15:23:11.887Z,74.96
2022-09-15T15:25:39.972Z,75.12
2022-09-15T15:28:07.710Z,75.77
2022-09-15T15:30:47.731Z,76.15
2022-09-15T15:33:20.925Z,77.56
2022-09-15T15:36:02.402Z,78.36
2022-09-15T15:38:33.873Z,78.66
2022-09-15T15:41:03.677Z,78.37
2022-09-15T15:50:53.652Z,79.53
2022-09-15T15:53:19.914Z,80.14
2022-09-15T15:55:46.387Z,79.78
2022-09-15T15:58:13.649Z,79.61
2022-09-15T16:00:43.729Z,79.75
2022-09-15T16:03:10.453Z,79.88
2022-09-15T16:05:38.564Z,79.77
2022-09-15T16:08:09.520Z,80.10
2022-09-15T16:15:38.733Z,81.08
2022-09-15T16:18:05.074Z,81.76
2022-09-15T16:20:31.250Z,80.29
2022-09-15T16:22:57.699Z,79.58
2022-09-15T16:25:33.691Z,78.38
2022-09-15T16:28:00.156Z,77.17
2022-09-15T16:30:26.385Z,76.46
2022-09-15T16:40:53.037Z,73.43
2022-09-15T16:43:22.503Z,72.14
2022-09-15T16:45:49.933Z,71.25
2022-09-15T16:48:16.596Z,71.14
2022-09-15T16:51:01.676Z,71.77
2022-09-15T16:53:30.534Z,71.42
2022-09-15T16:55:57.417Z,70.96
2022-09-15T16:58:23.856Z,70.37
2022-09-15T17:05:53.930Z,71.59
2022-09-15T17:08:23.809Z,71.46
2022-09-15T17:10:52.759Z,70.96
2022-09-15T17:13:25.136Z,70.09
2022-09-15T17:15:55.792Z,70.66
2022-09-15T17:18:24.022Z,71.74
2022-09-15T17:20:51.954Z,71.56
2022-09-15T17:23:23.444Z,71.96
2022-09-15T17:25:53.035Z,71.50
2022-09-15T17:28:22.627Z,71.25
2022-09-15T17:30:51.489Z,71.79
2022-09-15T17:33:21.396Z,70.78
2022-09-15T17:35:49.452Z,71.26
2022-09-15T17:38:20.189Z,71.42
2022-09-15T17:40:50.544Z,71.22
2022-09-15T17:43:20.433Z,71.35
2022-09-15T17:45:49.118Z,71.28
2022-09-15T17:48:17.643Z,70.74
2022-09-15T17:50:46.201Z,70.57
2022-09-15T17:53:15.721Z,69.64
2022-09-15T17:55:43.567Z,69.05
2022-09-15T17:58:12.735Z,69.33
2022-09-15T18:00:42.769Z,69.00
2022-09-15T18:03:21.877Z,69.10
2022-09-15T18:05:49.859Z,69.55
2022-09-15T18:08:17.598Z,69.09
2022-09-15T18:10:45.802Z,69.26
2022-09-15T18:13:17.021Z,70.24
2022-09-15T18:15:45.299Z,70.33
2022-09-15T18:18:16.001Z,69.95
2022-09-15T18:20:44.184Z,70.01
2022-09-15T18:26:38.069Z,69.72
2022-09-15T18:29:04.265Z,69.44
2022-09-15T18:31:30.548Z,69.55
2022-09-15T18:33:56.804Z,69.82
2022-09-15T18:36:23.090Z,69.89
2022-09-15T18:38:49.329Z,69.78
2022-09-15T18:41:15.604Z,70.18
2022-09-15T18:47:18.695Z,71.25
2022-09-15T18:49:44.922Z,70.89
2022-09-15T18:52:12.517Z,71.51
2022-09-15T18:54:39.235Z,71.15
2022-09-15T18:57:05.853Z,71.07
2022-09-15T18:59:32.061Z,71.50
2022-09-15T19:01:58.371Z,70.79
2022-09-15T19:09:27.649Z,69.96
2022-09-15T19:11:53.920Z,69.76
2022-09-15T19:14:20.334Z,69.30
2022-09-15T19:16:57.753Z,69.34
2022-09-15T19:19:25.019Z,70.10
2022-09-15T19:21:51.319Z,70.04
2022-09-15T19:24:20.547Z,70.22
2022-09-15T19:26:47.894Z,70.27
2022-09-15T19:34:33.101Z,70.45
2022-09-15T19:36:59.814Z,70.58
2022-09-15T19:39:26.079Z,70.67
2022-09-15T19:41:52.472Z,70.77
2022-09-15T19:44:18.758Z,71.61
2022-09-15T19:46:45.186Z,71.55
2022-09-15T19:49:12.178Z,72.54
2022-09-15T19:56:32.214Z,72.63
2022-09-15T19:58:58.964Z,73.15
2022-09-15T20:01:27.473Z,73.28
2022-09-15T20:03:55.180Z,73.50
2022-09-15T20:06:22.611Z,74.13
2022-09-15T20:08:51.769Z,73.82
2022-09-15T20:11:18.590Z,73.28
2022-09-15T20:18:48.998Z,74.60
2022-09-15T20:21:27.108Z,74.38
2022-09-15T20:24:05.786Z,74.11
2022-09-15T20:26:32.086Z,73.16
2022-09-15T20:29:00.701Z,72.96
2022-09-15T20:31:27.427Z,73.15
2022-09-15T20:33:54.959Z,73.06
2022-09-15T20:42:41.883Z,72.84
2022-09-15T20:45:09.086Z,72.41
2022-09-15T20:47:35.498Z,72.29
2022-09-15T20:50:01.774Z,72.06
2022-09-15T20:52:33.532Z,72.18
2022-09-15T20:55:02.253Z,72.66
2022-09-15T20:57:28.504Z,72.22
2022-09-15T21:04:58.186Z,71.33
2022-09-15T21:07:24.374Z,71.46
2022-09-15T21:09:50.631Z,71.31
2022-09-15T21:12:16.825Z,71.39
2022-09-15T21:14:43.059Z,71.05
2022-09-15T21:17:09.344Z,70.71
2022-09-15T21:19:37.168Z,70.61
2022-09-15T21:24:45.856Z,70.31
2022-09-15T21:27:28.246Z,70.07
2022-09-15T21:29:54.471Z,70.13
2022-09-15T21:32:20.818Z,70.03
2022-09-15T21:34:47.370Z,70.05
2022-09-15T21:37:13.723Z,70.61
2022-09-15T21:39:40.330Z,71.53
2022-09-15T21:47:14.890Z,71.13
2022-09-15T21:49:42.463Z,70.85
2022-09-15T21:52:10.120Z,70.89
2022-09-15T21:54:38.435Z,70.61
2022-09-15T21:57:06.054Z,70.75
2022-09-15T21:59:33.648Z,70.45
2022-09-15T22:02:02.072Z,70.55
2022-09-15T22:04:31.195Z,69.98
2022-09-15T22:06:58.880Z,70.37
2022-09-15T22:09:26.488Z,70.00
2022-09-15T22:11:54.204Z,70.17
2022-09-15T22:14:22.400Z,70.09
2022-09-15T22:16:50.418Z,69.91
2022-09-15T22:19:18.074Z,70.13
2022-09-15T22:21:47.126Z,70.13
2022-09-15T22:24:14.952Z,70.81
2022-09-15T22:26:43.857Z,70.36
2022-09-15T22:29:11.876Z,70.40
2022-09-15T22:31:39.629Z,70.33
2022-09-15T22:34:07.909Z,70.05
2022-09-15T22:36:35.947Z,70.13
2022-09-15T22:39:06.171Z,70.25
2022-09-15T22:41:35.867Z,70.47
2022-09-15T22:44:04.624Z,69.94
2022-09-15T22:46:33.427Z,70.19
2022-09-15T22:49:01.346Z,69.48
2022-09-15T22:51:29.080Z,69.71
2022-09-15T22:53:58.587Z,69.89
2022-09-15T22:56:28.548Z,69.77
2022-09-15T22:58:57.381Z,69.69
2022-09-15T23:01:27.277Z,69.27
2022-09-15T23:03:56.095Z,69.64
2022-09-15T23:06:24.411Z,69.46
2022-09-15T23:08:52.788Z,69.87
2022-09-15T23:11:20.787Z,69.81
2022-09-15T23:13:49.998Z,69.94
2022-09-15T23:16:18.183Z,69.71
2022-09-15T23:18:46.327Z,69.13
2022-09-15T23:21:14.193Z,69.24
2022-09-15T23:23:45.298Z,69.21
2022-09-15T23:26:13.671Z,68.93
2022-09-15T23:28:41.408Z,68.99
2022-09-15T23:31:11.897Z,68.77
2022-09-15T23:33:39.877Z,69.06
2022-09-15T23:36:09.925Z,68.49
2022-09-15T23:38:38.502Z,68.71
2022-09-15T23:41:06.928Z,68.71
2022-09-15T23:43:35.197Z,68.69
2022-09-15T23:46:03.548Z,68.82
2022-09-15T23:48:32.800Z,68.92
2022-09-15T23:51:00.693Z,68.83
2022-09-15T23:53:29.318Z,68.72
2022-09-15T23:55:57.292Z,68.92
2022-09-15T23:58:25.094Z,68.98
